TimeEST,TemperatureF,Dew PointF,Humidity,Sea Level PressureIn,VisibilityMPH,Wind Direction,Wind SpeedMPH,Gust SpeedMPH,PrecipitationIn,Events,Conditions,WindDirDegrees,DateUTC
12:52 AM,41.0,30.0,65,29.93,10.0,NW,18.4,31.1,N/A,,Overcast,310,2013-03-07 05:52:00
1:52 AM,41.0,28.9,62,29.94,10.0,NW,18.4,29.9,N/A,,Overcast,320,2013-03-07 06:52:00
2:52 AM,41.0,27.0,57,29.95,10.0,NW,20.7,-,N/A,,Overcast,320,2013-03-07 07:52:00
3:52 AM,41.0,27.0,57,29.97,10.0,NNW,20.7,29.9,N/A,,Overcast,330,2013-03-07 08:52:00
4:52 AM,41.0,27.0,57,29.99,10.0,NNW,19.6,32.2,N/A,,Overcast,330,2013-03-07 09:52:00
5:03 AM,41.0,28.4,61,29.99,10.0,NW,17.3,-,N/A,,Mostly Cloudy,320,2013-03-07 10:03:00
5:52 AM,39.0,27.0,62,30.01,10.0,NW,18.4,24.2,N/A,,Mostly Cloudy,320,2013-03-07 10:52:00
6:52 AM,39.0,27.0,62,30.03,10.0,NW,16.1,-,N/A,,Scattered Clouds,310,2013-03-07 11:52:00
7:52 AM,39.9,26.1,58,30.06,10.0,NW,18.4,25.3,N/A,,Partly Cloudy,310,2013-03-07 12:52:00
8:52 AM,43.0,25.0,49,30.06,10.0,NW,19.6,26.5,N/A,,Partly Cloudy,320,2013-03-07 13:52:00
9:52 AM,43.0,26.1,51,30.07,10.0,NW,18.4,-,N/A,,Scattered Clouds,320,2013-03-07 14:52:00
10:52 AM,45.0,26.1,48,30.08,10.0,WNW,17.3,24.2,N/A,,Scattered Clouds,300,2013-03-07 15:52:00
11:52 AM,48.0,28.0,46,30.08,10.0,WNW,16.1,-,N/A,,Scattered Clouds,300,2013-03-07 16:52:00
12:27 PM,46.4,28.4,50,30.07,10.0,North,12.7,-,N/A,,Scattered Clouds,350,2013-03-07 17:27:00
12:52 PM,46.0,28.9,51,30.06,10.0,North,13.8,-,N/A,,Scattered Clouds,10,2013-03-07 17:52:00
1:52 PM,48.0,28.9,48,30.04,10.0,North,15.0,-,N/A,,Scattered Clouds,350,2013-03-07 18:52:00
2:52 PM,48.0,30.9,52,30.04,10.0,North,12.7,-,N/A,,Scattered Clouds,350,2013-03-07 19:52:00
3:52 PM,50.0,26.1,39,30.05,10.0,NW,20.7,25.3,N/A,,Partly Cloudy,320,2013-03-07 20:52:00
4:52 PM,48.9,24.1,38,30.05,10.0,NW,19.6,27.6,N/A,,Scattered Clouds,310,2013-03-07 21:52:00
5:52 PM,46.9,24.1,41,30.07,10.0,NW,13.8,26.5,N/A,,Scattered Clouds,310,2013-03-07 22:52:00
6:52 PM,46.0,26.1,46,30.10,10.0,NW,13.8,-,N/A,,Scattered Clouds,310,2013-03-07 23:52:00
7:52 PM,46.0,25.0,44,30.12,10.0,NW,12.7,-,N/A,,Mostly Cloudy,310,2013-03-08 00:52:00
8:52 PM,45.0,28.9,53,30.12,10.0,WNW,11.5,-,N/A,,Mostly Cloudy,300,2013-03-08 01:52:00
9:52 PM,44.1,28.0,53,30.11,10.0,NW,13.8,-,N/A,,Partly Cloudy,310,2013-03-08 02:52:00
10:52 PM,42.1,28.9,60,30.12,10.0,WNW,11.5,-,N/A,,Partly Cloudy,300,2013-03-08 03:52:00
11:52 PM,41.0,30.0,65,30.12,10.0,WNW,10.4,-,N/A,,Overcast,300,2013-03-08 04:52:00